This is the latest recevied weather packets stored in our database for station/object YB2VNE-13. If no packets are shown the sender has not sent any weather packets the latest 10 day(s).
| Time | Temp. | Humidity | Pressure | Rain* | Wind** | Luminosity | Snow |
|---|---|---|---|---|---|---|---|
| 1777619376 | 29.44° C | 81% | 994 hPa | - | - | 0 W/m² | - |
| 1777619066 | 29.44° C | 79% | 994 hPa | - | - | 0 W/m² | - |
| 1777618756 | 29.44° C | 80% | 994 hPa | - | - | 0 W/m² | - |
| 1777618446 | 29.44° C | 83% | 994 hPa | - | - | 0 W/m² | - |
| 1777618136 | 29.44° C | 81% | 994 hPa | - | - | 0 W/m² | - |
| 1777617826 | 29.44° C | 78% | 994 hPa | - | - | 0 W/m² | - |
| 1777617517 | 30° C | 77% | 994 hPa | - | - | 0 W/m² | - |
| 1777617206 | 29.44° C | 85% | 994 hPa | - | - | 0 W/m² | - |
| 1777616896 | 29.44° C | 83% | 994 hPa | - | - | 0 W/m² | - |
| 1777616586 | 29.44° C | 85% | 994 hPa | - | - | 0 W/m² | - |
| 1777616277 | 29.44° C | 84% | 995 hPa | - | - | 0 W/m² | - |
| 1777615966 | 29.44° C | 84% | 995 hPa | - | - | 0 W/m² | - |
| 1777615656 | 29.44° C | 86% | 995 hPa | - | - | 0 W/m² | - |
| 1777615346 | 28.89° C | 89% | 995 hPa | - | - | 0 W/m² | - |
| 1777615036 | 28.89° C | 88% | 995 hPa | - | - | 0 W/m² | - |
| 1777614726 | 28.89° C | 90% | 995 hPa | - | - | 0 W/m² | - |
| 1777614416 | 28.33° C | 95% | 995 hPa | - | - | 0 W/m² | - |
| 1777614107 | 28.33° C | 95% | 995 hPa | - | - | 0 W/m² | - |
| 1777613796 | 28.89° C | 93% | 995 hPa | - | - | 0 W/m² | - |
| 1777613486 | 28.89° C | 91% | 995 hPa | - | - | 0 W/m² | - |
| 1777613176 | 28.89° C | 91% | 996 hPa | - | - | 0 W/m² | - |
| 1777612866 | 28.33° C | 95% | 996 hPa | - | - | 0 W/m² | - |
| 1777612556 | 28.89° C | 98% | 996 hPa | - | - | 0 W/m² | - |
| 1777612246 | 28.89° C | 99% | 996 hPa | - | - | 0 W/m² | - |
| 1777611936 | 28.33° C | 99% | 996 hPa | - | - | 0 W/m² | - |
* Rain since midnight (hover to see other rain measurements)
** Current wind speed in m/s (hover to see current wind gust speed)